createdAt,value
2023-10-26T00:01:43.822Z,97732.81
2023-10-26T00:04:12.615Z,97725.38
2023-10-26T00:06:44.686Z,97750.84
2023-10-26T00:09:13.519Z,97751.66
2023-10-26T00:11:42.509Z,97772.28
2023-10-26T00:14:11.362Z,97779.25
2023-10-26T00:16:40.146Z,97768.59
2023-10-26T00:19:08.925Z,97779.19
2023-10-26T00:21:37.905Z,97797.94
2023-10-26T00:24:07.222Z,97792.66
2023-10-26T00:26:36.463Z,97807.81
2023-10-26T00:29:05.442Z,97811.84
2023-10-26T00:31:34.217Z,97822.88
2023-10-26T00:34:03.507Z,97812.28
2023-10-26T00:36:32.276Z,97809.94
2023-10-26T00:39:01.260Z,97822.72
2023-10-26T00:41:30.091Z,97837.09
2023-10-26T00:43:58.792Z,97849.78
2023-10-26T00:46:27.987Z,97841.19
2023-10-26T00:48:57.172Z,97851.44
2023-10-26T00:51:26.419Z,97850.94
2023-10-26T00:53:55.536Z,97868.47
2023-10-26T00:56:24.774Z,97877.69
2023-10-26T00:58:53.888Z,97877.09
2023-10-26T01:01:23.027Z,97869.28
2023-10-26T01:03:54.268Z,97891.09
2023-10-26T01:06:22.950Z,97883.81
2023-10-26T01:08:52.085Z,97888.69
2023-10-26T01:11:23.353Z,97912.63
2023-10-26T01:13:52.575Z,97920.53
2023-10-26T01:16:21.793Z,97921.72
2023-10-26T01:18:50.631Z,97908.84
2023-10-26T01:21:19.465Z,97923.16
2023-10-26T01:23:48.114Z,97927.53
2023-10-26T01:26:16.855Z,97932.97
2023-10-26T01:28:45.693Z,97942.06
2023-10-26T01:31:21.025Z,97949.56
2023-10-26T01:33:49.762Z,97973.84
2023-10-26T01:36:18.938Z,97981.75
2023-10-26T01:38:47.873Z,97940.81
2023-10-26T01:41:16.891Z,98006.38
2023-10-26T01:43:45.510Z,97985.59
2023-10-26T01:46:14.229Z,98002.91
2023-10-26T01:48:43.254Z,98021.25
2023-10-26T01:51:11.836Z,98031.06
2023-10-26T01:53:42.340Z,98041.66
2023-10-26T01:56:12.475Z,98052.75
2023-10-26T01:58:41.889Z,98056.53
2023-10-26T02:01:11.001Z,98054.06
2023-10-26T02:03:40.119Z,98053.00
2023-10-26T02:06:11.168Z,98053.84
2023-10-26T02:08:41.328Z,98063.50
2023-10-26T02:11:10.188Z,98062.75
2023-10-26T02:13:39.023Z,98073.78
2023-10-26T02:16:09.346Z,98070.03
2023-10-26T02:18:38.068Z,98090.72
2023-10-26T02:21:07.923Z,98087.03
2023-10-26T02:23:36.452Z,98065.41
2023-10-26T02:26:08.010Z,98093.53
2023-10-26T02:28:36.758Z,98099.13
2023-10-26T02:31:06.292Z,98131.84
2023-10-26T02:33:35.161Z,98117.63
2023-10-26T02:36:06.386Z,98127.88
2023-10-26T02:38:35.133Z,98150.38
2023-10-26T02:41:07.571Z,98144.31
2023-10-26T02:43:36.131Z,98155.59
2023-10-26T02:46:08.850Z,98154.81
2023-10-26T02:48:37.906Z,98156.88
2023-10-26T02:51:06.901Z,98164.53
2023-10-26T02:53:35.670Z,98167.13
2023-10-26T02:56:05.210Z,98179.09
2023-10-26T02:58:34.374Z,98168.81
2023-10-26T03:01:03.460Z,98149.56
2023-10-26T03:03:32.357Z,98181.78
2023-10-26T03:06:01.669Z,98204.31
2023-10-26T03:08:30.495Z,98196.84
2023-10-26T03:10:59.775Z,98204.81
2023-10-26T03:13:28.532Z,98199.59
2023-10-26T03:15:57.057Z,98203.91
2023-10-26T03:18:25.810Z,98191.97
2023-10-26T03:20:54.529Z,98215.28
2023-10-26T03:23:22.919Z,98210.78
2023-10-26T03:25:51.940Z,98218.53
2023-10-26T03:28:20.409Z,98213.44
2023-10-26T03:30:49.348Z,98210.22
2023-10-26T03:33:17.930Z,98206.13
2023-10-26T03:35:47.125Z,98230.44
2023-10-26T03:38:16.167Z,98234.16
2023-10-26T03:40:44.954Z,98229.91
2023-10-26T03:43:13.887Z,98234.28
2023-10-26T03:45:47.386Z,98259.19
2023-10-26T03:48:16.367Z,98245.50
2023-10-26T03:50:45.868Z,98249.91
2023-10-26T03:53:14.512Z,98244.41
2023-10-26T03:55:43.102Z,98236.13
2023-10-26T03:58:14.247Z,98252.56
2023-10-26T04:00:43.043Z,98234.25
2023-10-26T04:03:12.155Z,98247.84
2023-10-26T04:05:41.355Z,98269.19
2023-10-26T04:08:11.421Z,98266.91
2023-10-26T04:10:40.464Z,98288.06
2023-10-26T04:13:11.116Z,98293.41
2023-10-26T04:15:40.040Z,98282.53
2023-10-26T04:18:08.983Z,98301.59
2023-10-26T04:20:37.890Z,98296.50
2023-10-26T04:23:06.903Z,98281.44
2023-10-26T04:25:53.018Z,98294.31
2023-10-26T04:28:23.352Z,98296.94
2023-10-26T04:30:52.586Z,98306.56
2023-10-26T04:33:21.449Z,98307.25
2023-10-26T04:35:51.327Z,98315.28
2023-10-26T04:38:20.323Z,98328.03
2023-10-26T04:40:48.878Z,98329.78
2023-10-26T04:43:18.119Z,98332.34
2023-10-26T04:45:48.493Z,98322.75
2023-10-26T04:48:16.989Z,98332.25
2023-10-26T04:50:45.748Z,98331.25
2023-10-26T04:53:14.162Z,98295.56
2023-10-26T04:55:42.865Z,98317.75
2023-10-26T04:58:15.529Z,98330.63
2023-10-26T05:00:44.378Z,98351.34
2023-10-26T05:03:13.263Z,98327.28
2023-10-26T05:05:41.761Z,98338.31
2023-10-26T05:08:10.602Z,98348.72
2023-10-26T05:10:39.555Z,98341.66
2023-10-26T05:13:08.327Z,98351.84
2023-10-26T05:15:36.923Z,98348.84
2023-10-26T05:18:10.484Z,98352.50
2023-10-26T05:20:40.246Z,98375.13
2023-10-26T05:23:10.240Z,98364.19
2023-10-26T05:25:38.841Z,98360.28
2023-10-26T05:28:07.615Z,98368.53
2023-10-26T05:30:42.746Z,98379.72
2023-10-26T05:33:11.429Z,98373.97
2023-10-26T05:35:40.165Z,98380.16
2023-10-26T05:38:10.514Z,98372.47
2023-10-26T05:40:39.349Z,98369.19
2023-10-26T05:43:07.978Z,98388.06
2023-10-26T05:45:41.870Z,98375.31
2023-10-26T05:48:12.158Z,98379.75
2023-10-26T05:50:45.185Z,98377.31
2023-10-26T05:53:13.746Z,98371.31
2023-10-26T05:55:43.105Z,98390.16
2023-10-26T05:58:11.697Z,98396.28
2023-10-26T06:00:40.778Z,98404.78
2023-10-26T06:03:09.649Z,98401.44
2023-10-26T06:05:38.516Z,98405.88
2023-10-26T06:08:07.570Z,98405.00
2023-10-26T06:10:36.666Z,98406.88
2023-10-26T06:13:09.543Z,98391.59
2023-10-26T06:15:38.389Z,98396.59
2023-10-26T06:18:07.277Z,98400.00
2023-10-26T06:20:35.811Z,98403.41
2023-10-26T06:23:04.702Z,98424.22
2023-10-26T06:25:40.854Z,98412.31
2023-10-26T06:28:09.542Z,98413.31
2023-10-26T06:30:38.245Z,98387.22
2023-10-26T06:33:06.995Z,98423.00
2023-10-26T06:35:35.915Z,98429.22
2023-10-26T06:38:04.699Z,98397.00
2023-10-26T06:40:33.318Z,98442.09
2023-10-26T06:43:05.029Z,98450.19
2023-10-26T06:45:33.501Z,98451.06
2023-10-26T06:48:02.188Z,98438.31
2023-10-26T06:50:30.899Z,98415.50
2023-10-26T06:53:02.396Z,98465.00
2023-10-26T06:55:37.297Z,98453.91
2023-10-26T06:58:08.852Z,98373.22
2023-10-26T07:00:37.450Z,98477.94
2023-10-26T07:03:06.210Z,98425.25
2023-10-26T07:05:35.678Z,98452.41
2023-10-26T07:08:04.695Z,98438.16
2023-10-26T07:10:33.415Z,98456.66
2023-10-26T07:13:01.994Z,98439.06
2023-10-26T07:15:30.639Z,98467.19
2023-10-26T07:17:59.273Z,98460.38
2023-10-26T07:20:27.987Z,98459.28
2023-10-26T07:22:56.742Z,98477.06
2023-10-26T07:25:28.285Z,98473.16
2023-10-26T07:27:57.097Z,98494.69
2023-10-26T07:30:25.779Z,98501.59
2023-10-26T07:32:55.022Z,98513.06
2023-10-26T07:35:23.710Z,98497.56
2023-10-26T07:38:09.094Z,98515.59
2023-10-26T07:40:54.288Z,98491.63
2023-10-26T07:43:23.107Z,98507.25
2023-10-26T07:45:53.235Z,98507.19
2023-10-26T07:48:22.428Z,98526.41
2023-10-26T07:50:52.681Z,98520.31
2023-10-26T07:53:21.363Z,98515.47
2023-10-26T07:55:49.876Z,98503.75
2023-10-26T07:58:18.737Z,98535.19
2023-10-26T08:00:47.329Z,98534.34
2023-10-26T08:03:16.084Z,98519.28
2023-10-26T08:05:44.911Z,98546.47
2023-10-26T08:08:13.538Z,98558.50
2023-10-26T08:10:42.230Z,98560.28
2023-10-26T08:13:11.586Z,98565.50
2023-10-26T08:16:33.807Z,98587.94
2023-10-26T08:18:32.601Z,98583.84
2023-10-26T08:21:01.880Z,98561.78
2023-10-26T08:23:31.837Z,98603.47
2023-10-26T08:26:08.705Z,98599.25
2023-10-26T08:28:38.300Z,98597.44
2023-10-26T08:31:08.693Z,98592.34
2023-10-26T08:33:37.534Z,98604.19
2023-10-26T08:36:07.466Z,98588.84
2023-10-26T08:38:36.082Z,98611.16
2023-10-26T08:41:08.346Z,98606.69
2023-10-26T08:43:37.083Z,98610.19
2023-10-26T08:46:08.386Z,98617.78
2023-10-26T08:48:42.486Z,98619.50
2023-10-26T08:51:11.217Z,98634.19
2023-10-26T08:53:41.838Z,98631.84
2023-10-26T08:56:13.032Z,98619.78
2023-10-26T08:58:41.797Z,98652.56
2023-10-26T09:01:10.715Z,98638.75
2023-10-26T09:03:39.488Z,98645.66
2023-10-26T09:06:08.116Z,98648.25
2023-10-26T09:08:36.778Z,98672.25
2023-10-26T09:11:27.741Z,98646.56
2023-10-26T09:13:56.865Z,98662.75
2023-10-26T09:16:42.220Z,98679.19
2023-10-26T09:19:10.926Z,98675.78
2023-10-26T09:21:58.270Z,98682.69
2023-10-26T09:24:29.013Z,98681.69
2023-10-26T09:27:06.751Z,98691.19
2023-10-26T09:29:42.597Z,98702.13
2023-10-26T09:32:11.853Z,98716.72
2023-10-26T09:34:42.500Z,98715.91
2023-10-26T09:37:12.181Z,98664.97
2023-10-26T09:39:44.854Z,98718.44
2023-10-26T09:42:14.481Z,98722.66
2023-10-26T09:44:43.311Z,98731.09
2023-10-26T09:47:13.309Z,98743.09
2023-10-26T09:49:42.333Z,98737.34
2023-10-26T09:52:11.157Z,98747.09
2023-10-26T09:54:42.880Z,98755.78
2023-10-26T09:57:20.656Z,98764.50
2023-10-26T09:59:55.345Z,98765.69
2023-10-26T10:02:25.780Z,98762.22
2023-10-26T10:04:54.454Z,98763.19
2023-10-26T10:07:43.057Z,98788.03
2023-10-26T10:10:13.858Z,98777.78
2023-10-26T10:12:44.422Z,98783.81
2023-10-26T10:15:40.127Z,98783.88
2023-10-26T10:18:08.658Z,98804.56
2023-10-26T10:20:38.526Z,98814.81
2023-10-26T10:23:07.242Z,98796.78
2023-10-26T10:25:51.074Z,98814.75
2023-10-26T10:28:22.986Z,98813.25
2023-10-26T10:31:02.498Z,98812.38
2023-10-26T10:33:31.185Z,98782.75
2023-10-26T10:36:07.138Z,98811.81
2023-10-26T10:38:35.661Z,98823.66
2023-10-26T10:41:04.433Z,98832.22
2023-10-26T10:43:42.053Z,98834.88
2023-10-26T10:46:22.246Z,98847.03
2023-10-26T10:48:59.167Z,98854.72
2023-10-26T10:51:32.571Z,98847.63
2023-10-26T10:54:07.614Z,98846.84
2023-10-26T10:56:49.756Z,98831.84
2023-10-26T10:59:28.075Z,98866.94
2023-10-26T11:02:14.051Z,98881.13
2023-10-26T11:07:32.160Z,98888.50
2023-10-26T11:10:02.175Z,98879.97
2023-10-26T11:12:31.099Z,98865.75
2023-10-26T11:15:00.335Z,98899.97
2023-10-26T11:17:31.581Z,98902.72
2023-10-26T11:20:00.127Z,98904.81
2023-10-26T11:22:29.914Z,98901.50
2023-10-26T11:24:58.655Z,98919.56
2023-10-26T11:27:27.364Z,98915.41
2023-10-26T11:30:05.874Z,98931.66
2023-10-26T11:32:35.187Z,98941.25
2023-10-26T11:35:20.659Z,98931.09
2023-10-26T11:37:57.989Z,98897.09
2023-10-26T11:40:34.108Z,98933.75
2023-10-26T11:43:07.593Z,98955.19
2023-10-26T11:45:50.162Z,98967.34
2023-10-26T11:48:29.092Z,98963.13
2023-10-26T11:50:57.828Z,98971.94
2023-10-26T11:53:28.059Z,98980.47
2023-10-26T11:55:57.145Z,98976.25
2023-10-26T11:58:25.926Z,98971.38
2023-10-26T12:00:57.073Z,98974.09
2023-10-26T12:03:25.902Z,98966.69
2023-10-26T12:05:55.959Z,98985.41
2023-10-26T12:08:24.789Z,99002.63
2023-10-26T12:10:53.788Z,98972.91
2023-10-26T12:13:22.297Z,99005.47
2023-10-26T12:15:51.377Z,99008.97
2023-10-26T12:18:20.649Z,99010.78
2023-10-26T12:20:49.234Z,99021.97
2023-10-26T12:23:20.898Z,99017.84
2023-10-26T12:25:49.530Z,99032.47
2023-10-26T12:28:24.086Z,99042.78
2023-10-26T12:30:55.328Z,99037.72
2023-10-26T12:33:24.202Z,99008.84
2023-10-26T12:35:52.708Z,99047.38
2023-10-26T12:38:21.743Z,99047.31
2023-10-26T12:40:50.511Z,99053.44
2023-10-26T12:43:19.318Z,99056.03
2023-10-26T12:45:50.105Z,99045.66
2023-10-26T12:48:18.669Z,99054.22
2023-10-26T12:50:47.307Z,99050.03
2023-10-26T12:53:18.650Z,99076.63
2023-10-26T12:55:49.795Z,99067.28
2023-10-26T12:58:18.785Z,99083.63
2023-10-26T13:00:50.203Z,99078.66
2023-10-26T13:03:19.017Z,99095.06
2023-10-26T13:05:47.642Z,99094.28
2023-10-26T13:08:16.392Z,99103.78
2023-10-26T13:10:45.112Z,99096.13
2023-10-26T13:13:14.796Z,99109.88
2023-10-26T13:15:43.379Z,99126.41
2023-10-26T13:18:11.844Z,99097.41
2023-10-26T13:20:40.360Z,99147.16
2023-10-26T13:23:09.076Z,99130.00
2023-10-26T13:25:41.494Z,99149.84
2023-10-26T13:28:10.330Z,99149.28
2023-10-26T13:30:39.232Z,99167.19
2023-10-26T13:33:10.779Z,99165.56
2023-10-26T13:35:40.099Z,99161.28
2023-10-26T13:38:18.567Z,99168.31
2023-10-26T13:40:49.550Z,99172.66
2023-10-26T13:43:18.259Z,99160.72
2023-10-26T13:45:47.470Z,99195.19
2023-10-26T13:48:17.277Z,99188.34
2023-10-26T13:50:59.575Z,99191.84
2023-10-26T13:53:29.654Z,99218.56
2023-10-26T13:56:02.956Z,99209.94
2023-10-26T13:58:31.683Z,99205.81
2023-10-26T14:01:01.013Z,99211.88
2023-10-26T14:03:29.883Z,99203.41
2023-10-26T14:05:58.681Z,99225.72
2023-10-26T14:08:31.172Z,99231.81
2023-10-26T14:11:02.540Z,99225.00
2023-10-26T14:13:34.087Z,99237.88
2023-10-26T14:16:02.886Z,99239.69
2023-10-26T14:18:31.741Z,99245.75
2023-10-26T14:21:00.782Z,99267.31
2023-10-26T14:23:29.480Z,99241.53
2023-10-26T14:26:02.300Z,99250.09
2023-10-26T14:28:31.078Z,99263.84
2023-10-26T14:31:02.371Z,99275.97
2023-10-26T14:33:31.101Z,99265.63
2023-10-26T14:36:00.048Z,99254.63
2023-10-26T14:38:28.752Z,99296.72
2023-10-26T14:40:59.372Z,99272.72
2023-10-26T14:43:28.971Z,99278.72
2023-10-26T14:45:57.932Z,99291.63
2023-10-26T14:48:26.816Z,99285.72
2023-10-26T14:51:02.982Z,99289.19
2023-10-26T14:53:32.018Z,99284.94
2023-10-26T14:56:05.922Z,99299.56
2023-10-26T14:58:34.886Z,99299.59
2023-10-26T15:01:03.831Z,99312.63
2023-10-26T15:03:32.762Z,99328.09
2023-10-26T15:06:02.727Z,99321.22
2023-10-26T15:08:31.422Z,99319.59
2023-10-26T15:11:22.747Z,99318.78
2023-10-26T15:13:52.857Z,99326.56
2023-10-26T15:16:24.729Z,99345.53
2023-10-26T15:18:53.948Z,99331.84
2023-10-26T15:21:22.650Z,99342.22
2023-10-26T15:23:51.568Z,99349.13
2023-10-26T15:26:20.227Z,99350.00
2023-10-26T15:28:49.246Z,99354.31
2023-10-26T15:31:17.873Z,99353.53
2023-10-26T15:33:47.827Z,99344.13
2023-10-26T15:36:17.915Z,99364.72
2023-10-26T15:38:46.658Z,99358.75
2023-10-26T15:41:15.301Z,99374.25
2023-10-26T15:43:45.277Z,99375.09
2023-10-26T15:46:18.268Z,99368.16
2023-10-26T15:49:31.631Z,99369.81
2023-10-26T15:51:36.542Z,99387.94
2023-10-26T15:54:05.455Z,99388.91
2023-10-26T15:56:34.659Z,99394.91
2023-10-26T15:59:03.577Z,99401.00
2023-10-26T16:01:32.424Z,99383.03
2023-10-26T16:04:01.353Z,99391.63
2023-10-26T16:06:30.438Z,99389.94
2023-10-26T16:09:00.077Z,99396.78
2023-10-26T16:11:31.118Z,99364.25
2023-10-26T16:14:00.259Z,99391.72
2023-10-26T16:16:28.988Z,99396.03
2023-10-26T16:18:57.849Z,99396.09
2023-10-26T16:21:26.960Z,99385.84
2023-10-26T16:23:55.762Z,99372.13
2023-10-26T16:26:24.521Z,99404.72
2023-10-26T16:28:53.374Z,99409.03
2023-10-26T16:31:22.265Z,99408.19
2023-10-26T16:33:51.413Z,99413.34
2023-10-26T16:36:20.535Z,99415.84
2023-10-26T16:38:49.795Z,99418.47
2023-10-26T16:41:19.949Z,99395.38
2023-10-26T16:43:51.610Z,99427.94
2023-10-26T16:46:22.019Z,99430.53
2023-10-26T16:48:50.945Z,99435.69
2023-10-26T16:51:19.603Z,99435.69
2023-10-26T16:53:48.302Z,99449.38
2023-10-26T16:56:17.043Z,99447.66
2023-10-26T16:58:45.686Z,99409.00
2023-10-26T17:01:14.757Z,99441.53
2023-10-26T17:03:47.174Z,99449.22
2023-10-26T17:06:16.020Z,99458.69
2023-10-26T17:08:46.362Z,99425.22
2023-10-26T17:11:15.718Z,99463.81
2023-10-26T17:13:44.441Z,99452.59
2023-10-26T17:16:19.013Z,99464.59
2023-10-26T17:18:47.648Z,99426.81
2023-10-26T17:21:17.716Z,99461.16
2023-10-26T17:23:48.523Z,99473.97
2023-10-26T17:26:18.438Z,99467.97
2023-10-26T17:28:49.797Z,99463.69
2023-10-26T17:31:18.521Z,99475.78
2023-10-26T17:33:47.243Z,99477.56
2023-10-26T17:36:16.439Z,99473.28
2023-10-26T17:38:45.157Z,99478.47
2023-10-26T17:41:15.415Z,99492.31
2023-10-26T17:43:45.862Z,99500.94
2023-10-26T17:46:17.298Z,99494.97
2023-10-26T17:48:47.104Z,99479.53
2023-10-26T17:51:19.942Z,99467.53
2023-10-26T17:53:49.914Z,99489.88
2023-10-26T17:56:20.407Z,99494.19
2023-10-26T17:58:49.489Z,99506.16
2023-10-26T18:01:19.976Z,99497.59
2023-10-26T18:03:50.126Z,99504.38
2023-10-26T18:06:22.358Z,99512.13
2023-10-26T18:08:53.656Z,99494.91
2023-10-26T18:11:25.837Z,99513.00
2023-10-26T18:13:54.654Z,99522.47
2023-10-26T18:16:23.761Z,99524.19
2023-10-26T18:18:52.527Z,99512.19
2023-10-26T18:21:21.704Z,99525.09
2023-10-26T18:23:50.640Z,99519.09
2023-10-26T18:26:19.382Z,99543.22
2023-10-26T18:28:48.476Z,99526.06
2023-10-26T18:31:19.131Z,99547.56
2023-10-26T18:33:52.540Z,99522.75
2023-10-26T18:36:23.324Z,99538.19
2023-10-26T18:38:55.149Z,99518.44
2023-10-26T18:41:25.938Z,99563.13
2023-10-26T18:43:55.562Z,99547.63
2023-10-26T18:46:26.873Z,99520.16
2023-10-26T18:48:55.670Z,99546.72
2023-10-26T18:51:25.255Z,99557.88
2023-10-26T18:53:57.975Z,99546.66
2023-10-26T18:56:27.047Z,99519.19
2023-10-26T18:58:57.217Z,99557.00
2023-10-26T19:01:27.446Z,99557.81
2023-10-26T19:04:02.708Z,99554.38
2023-10-26T19:06:32.440Z,99553.50
2023-10-26T19:09:01.876Z,99564.69
2023-10-26T19:11:30.816Z,99556.09
2023-10-26T19:14:00.023Z,99575.00
2023-10-26T19:16:29.562Z,99565.56
2023-10-26T19:18:58.191Z,99574.97
2023-10-26T19:21:26.723Z,99568.16
2023-10-26T19:23:57.321Z,99591.38
2023-10-26T19:26:26.139Z,99593.13
2023-10-26T19:28:54.615Z,99566.53
2023-10-26T19:31:25.510Z,99594.00
2023-10-26T19:33:58.048Z,99564.81
2023-10-26T19:36:30.102Z,99604.28
2023-10-26T19:38:58.588Z,99594.00
2023-10-26T19:41:27.159Z,99596.59
2023-10-26T19:43:55.687Z,99610.38
2023-10-26T19:46:24.369Z,99606.06
2023-10-26T19:48:52.843Z,99618.09
2023-10-26T19:51:24.408Z,99607.78
2023-10-26T19:53:54.083Z,99613.78
2023-10-26T19:56:23.809Z,99617.28
2023-10-26T19:58:52.560Z,99618.09
2023-10-26T20:01:21.663Z,99623.25
2023-10-26T20:03:54.869Z,99637.03
2023-10-26T20:06:23.584Z,99627.56
2023-10-26T20:08:53.456Z,99629.34
2023-10-26T20:11:24.335Z,99636.22
2023-10-26T20:13:54.015Z,99637.09
2023-10-26T20:16:23.180Z,99649.19
2023-10-26T20:18:53.216Z,99642.31
2023-10-26T20:21:23.451Z,99614.84
2023-10-26T20:23:52.334Z,99651.81
2023-10-26T20:26:22.891Z,99639.81
2023-10-26T20:28:51.798Z,99657.06
2023-10-26T20:31:20.339Z,99626.16
2023-10-26T20:33:49.122Z,99657.97
2023-10-26T20:36:17.722Z,99669.19
2023-10-26T20:38:46.357Z,99661.41
2023-10-26T20:41:14.917Z,99655.44
2023-10-26T20:43:43.438Z,99677.00
2023-10-26T20:46:13.558Z,99667.56
2023-10-26T20:48:45.507Z,99671.00
2023-10-26T20:51:15.759Z,99683.91
2023-10-26T20:53:45.489Z,99668.50
2023-10-26T20:56:15.627Z,99707.22
2023-10-26T20:58:46.437Z,99658.19
2023-10-26T21:01:15.276Z,99698.63
2023-10-26T21:03:45.486Z,99708.97
2023-10-26T21:06:14.754Z,99697.81
2023-10-26T21:08:46.241Z,99707.31
2023-10-26T21:11:16.774Z,99727.13
2023-10-26T21:13:45.969Z,99727.13
2023-10-26T21:16:15.927Z,99741.84
2023-10-26T21:18:44.587Z,99738.41
2023-10-26T21:21:13.157Z,99721.19
2023-10-26T21:23:41.918Z,99745.34
2023-10-26T21:26:11.933Z,99745.34
2023-10-26T21:28:43.300Z,99754.81
2023-10-26T21:31:12.569Z,99753.09
2023-10-26T21:33:43.717Z,99749.66
2023-10-26T21:36:13.085Z,99730.72
2023-10-26T21:38:41.858Z,99741.94
2023-10-26T21:41:10.397Z,99747.97
2023-10-26T21:43:39.290Z,99747.09
2023-10-26T21:46:08.711Z,99751.44
2023-10-26T21:48:40.175Z,99760.88
2023-10-26T21:51:12.513Z,99766.91
2023-10-26T21:53:41.773Z,99760.03
2023-10-26T21:56:10.360Z,99762.59
2023-10-26T21:58:40.634Z,99761.75
2023-10-26T22:01:10.695Z,99784.16
2023-10-26T22:03:45.360Z,99772.09
2023-10-26T22:06:17.223Z,99786.75
2023-10-26T22:08:45.941Z,99782.47
2023-10-26T22:11:14.634Z,99785.03
2023-10-26T22:13:43.793Z,99787.63
2023-10-26T22:16:13.023Z,99761.78
2023-10-26T22:18:41.948Z,99799.69
2023-10-26T22:21:14.544Z,99798.81
2023-10-26T22:23:43.310Z,99801.44
2023-10-26T22:26:11.829Z,99790.22
2023-10-26T22:28:41.211Z,99806.56
2023-10-26T22:31:11.174Z,99806.56
2023-10-26T22:33:39.832Z,99823.81
2023-10-26T22:36:10.092Z,99823.78
2023-10-26T22:38:40.276Z,99829.81
2023-10-26T22:41:12.355Z,99812.59
2023-10-26T22:43:41.277Z,99810.00
2023-10-26T22:46:12.875Z,99857.41
2023-10-26T22:48:41.442Z,99847.06
2023-10-26T22:51:10.032Z,99856.53
2023-10-26T22:53:38.893Z,99856.53
2023-10-26T22:56:07.589Z,99846.19
2023-10-26T22:58:38.753Z,99871.19
2023-10-26T23:01:07.884Z,99865.16
2023-10-26T23:03:36.439Z,99875.50
2023-10-26T23:06:05.058Z,99874.59
2023-10-26T23:08:35.314Z,99877.19
2023-10-26T23:11:04.574Z,99891.00
2023-10-26T23:13:33.891Z,99890.97
2023-10-26T23:16:02.600Z,99902.19
2023-10-26T23:18:31.414Z,99891.88
2023-10-26T23:21:00.089Z,99909.09
2023-10-26T23:23:29.033Z,99896.16
2023-10-26T23:25:57.839Z,99899.59
2023-10-26T23:28:26.411Z,99858.25
2023-10-26T23:30:54.867Z,99908.22
2023-10-26T23:33:23.678Z,99915.13
2023-10-26T23:35:52.271Z,99915.13
2023-10-26T23:38:21.963Z,99924.59
2023-10-26T23:40:50.837Z,99916.81
2023-10-26T23:43:19.301Z,99916.81
2023-10-26T23:45:47.792Z,99927.16
2023-10-26T23:48:16.561Z,99886.63
2023-10-26T23:50:45.146Z,99949.59
2023-10-26T23:53:18.171Z,99948.72
2023-10-26T23:55:47.172Z,99922.84
2023-10-26T23:58:16.753Z,99944.44
